sensor_id;sensor_type;location;lat;lon;timestamp;P1;durP1;ratioP1;P2;durP2;ratioP2
12878;SDS011;20617;49.476;10.986;2023-11-21T00:00:34;2.55;;;0.80;;
12878;SDS011;20617;49.476;10.986;2023-11-21T00:04:44;3.95;;;1.20;;
12878;SDS011;20617;49.476;10.986;2023-11-21T00:08:57;3.85;;;1.10;;
12878;SDS011;20617;49.476;10.986;2023-11-21T00:13:07;3.63;;;1.58;;
12878;SDS011;20617;49.476;10.986;2023-11-21T00:15:14;2.17;;;1.13;;
12878;SDS011;20617;49.476;10.986;2023-11-21T00:17:19;3.28;;;1.10;;
12878;SDS011;20617;49.476;10.986;2023-11-21T00:19:25;2.65;;;1.13;;
12878;SDS011;20617;49.476;10.986;2023-11-21T00:21:30;2.72;;;1.10;;
12878;SDS011;20617;49.476;10.986;2023-11-21T00:23:38;1.45;;;1.02;;
12878;SDS011;20617;49.476;10.986;2023-11-21T00:25:43;2.67;;;1.23;;
12878;SDS011;20617;49.476;10.986;2023-11-21T00:29:50;2.83;;;0.82;;
12878;SDS011;20617;49.476;10.986;2023-11-21T00:31:56;3.03;;;1.08;;
12878;SDS011;20617;49.476;10.986;2023-11-21T00:34:02;2.33;;;1.15;;
12878;SDS011;20617;49.476;10.986;2023-11-21T00:36:08;2.08;;;1.10;;
12878;SDS011;20617;49.476;10.986;2023-11-21T00:38:14;3.53;;;1.20;;
12878;SDS011;20617;49.476;10.986;2023-11-21T00:40:24;3.55;;;1.30;;
12878;SDS011;20617;49.476;10.986;2023-11-21T00:42:29;3.42;;;1.27;;
12878;SDS011;20617;49.476;10.986;2023-11-21T00:44:37;1.95;;;0.98;;
12878;SDS011;20617;49.476;10.986;2023-11-21T00:46:39;2.17;;;1.13;;
12878;SDS011;20617;49.476;10.986;2023-11-21T00:48:45;2.28;;;0.98;;
12878;SDS011;20617;49.476;10.986;2023-11-21T00:50:51;3.58;;;1.30;;
12878;SDS011;20617;49.476;10.986;2023-11-21T00:52:57;4.65;;;1.02;;
12878;SDS011;20617;49.476;10.986;2023-11-21T00:55:04;3.65;;;1.27;;
12878;SDS011;20617;49.476;10.986;2023-11-21T00:57:12;2.47;;;0.85;;
12878;SDS011;20617;49.476;10.986;2023-11-21T00:59:17;2.58;;;1.10;;
12878;SDS011;20617;49.476;10.986;2023-11-21T01:01:21;2.03;;;1.08;;
12878;SDS011;20617;49.476;10.986;2023-11-21T01:05:32;3.85;;;1.00;;
12878;SDS011;20617;49.476;10.986;2023-11-21T01:07:37;2.85;;;0.88;;
12878;SDS011;20617;49.476;10.986;2023-11-21T01:09:39;2.15;;;1.10;;
12878;SDS011;20617;49.476;10.986;2023-11-21T01:11:46;3.95;;;1.40;;
12878;SDS011;20617;49.476;10.986;2023-11-21T01:15:59;2.13;;;1.27;;
12878;SDS011;20617;49.476;10.986;2023-11-21T01:18:04;1.25;;;1.02;;
12878;SDS011;20617;49.476;10.986;2023-11-21T01:20:11;3.83;;;1.60;;
12878;SDS011;20617;49.476;10.986;2023-11-21T01:22:16;2.00;;;1.10;;
12878;SDS011;20617;49.476;10.986;2023-11-21T01:24:19;2.70;;;1.23;;
12878;SDS011;20617;49.476;10.986;2023-11-21T01:26:24;4.20;;;1.23;;
12878;SDS011;20617;49.476;10.986;2023-11-21T01:28:29;2.47;;;1.10;;
12878;SDS011;20617;49.476;10.986;2023-11-21T01:32:42;2.63;;;0.82;;
12878;SDS011;20617;49.476;10.986;2023-11-21T01:34:49;2.22;;;1.40;;
12878;SDS011;20617;49.476;10.986;2023-11-21T01:36:55;3.47;;;1.10;;
12878;SDS011;20617;49.476;10.986;2023-11-21T01:39:02;2.35;;;1.20;;
12878;SDS011;20617;49.476;10.986;2023-11-21T01:41:10;4.40;;;1.40;;
12878;SDS011;20617;49.476;10.986;2023-11-21T01:43:14;3.37;;;1.17;;
12878;SDS011;20617;49.476;10.986;2023-11-21T01:45:19;2.78;;;1.27;;
12878;SDS011;20617;49.476;10.986;2023-11-21T01:47:29;3.90;;;1.17;;
12878;SDS011;20617;49.476;10.986;2023-11-21T01:49:35;4.22;;;1.00;;
12878;SDS011;20617;49.476;10.986;2023-11-21T01:51:40;3.25;;;1.08;;
12878;SDS011;20617;49.476;10.986;2023-11-21T01:53:48;3.13;;;1.10;;
12878;SDS011;20617;49.476;10.986;2023-11-21T01:55:54;2.15;;;1.02;;
12878;SDS011;20617;49.476;10.986;2023-11-21T01:58:01;2.47;;;0.90;;
12878;SDS011;20617;49.476;10.986;2023-11-21T02:00:09;2.38;;;0.98;;
12878;SDS011;20617;49.476;10.986;2023-11-21T02:02:17;2.67;;;1.20;;
12878;SDS011;20617;49.476;10.986;2023-11-21T02:04:25;1.77;;;0.82;;
12878;SDS011;20617;49.476;10.986;2023-11-21T02:06:30;2.78;;;1.13;;
12878;SDS011;20617;49.476;10.986;2023-11-21T02:08:35;2.28;;;1.00;;
12878;SDS011;20617;49.476;10.986;2023-11-21T02:10:45;1.88;;;1.00;;
12878;SDS011;20617;49.476;10.986;2023-11-21T02:12:51;1.90;;;1.00;;
12878;SDS011;20617;49.476;10.986;2023-11-21T02:14:55;2.73;;;1.17;;
12878;SDS011;20617;49.476;10.986;2023-11-21T02:17:00;2.88;;;1.10;;
12878;SDS011;20617;49.476;10.986;2023-11-21T02:19:06;2.10;;;1.10;;
12878;SDS011;20617;49.476;10.986;2023-11-21T02:21:18;2.08;;;1.10;;
12878;SDS011;20617;49.476;10.986;2023-11-21T02:23:26;2.97;;;0.95;;
12878;SDS011;20617;49.476;10.986;2023-11-21T02:25:31;2.13;;;1.05;;
12878;SDS011;20617;49.476;10.986;2023-11-21T02:27:39;2.33;;;1.05;;
12878;SDS011;20617;49.476;10.986;2023-11-21T02:29:41;2.42;;;1.02;;
12878;SDS011;20617;49.476;10.986;2023-11-21T02:33:50;2.92;;;1.10;;
12878;SDS011;20617;49.476;10.986;2023-11-21T02:38:01;3.33;;;1.25;;
12878;SDS011;20617;49.476;10.986;2023-11-21T02:42:19;1.95;;;0.90;;
12878;SDS011;20617;49.476;10.986;2023-11-21T02:44:22;3.35;;;1.00;;
12878;SDS011;20617;49.476;10.986;2023-11-21T02:46:27;1.58;;;0.95;;
12878;SDS011;20617;49.476;10.986;2023-11-21T02:48:30;1.85;;;0.98;;
12878;SDS011;20617;49.476;10.986;2023-11-21T02:50:35;1.90;;;1.00;;
12878;SDS011;20617;49.476;10.986;2023-11-21T02:52:41;2.60;;;1.20;;
12878;SDS011;20617;49.476;10.986;2023-11-21T02:56:54;2.67;;;1.10;;
12878;SDS011;20617;49.476;10.986;2023-11-21T02:59:00;2.65;;;1.27;;
12878;SDS011;20617;49.476;10.986;2023-11-21T03:01:04;1.70;;;0.90;;
12878;SDS011;20617;49.476;10.986;2023-11-21T03:03:09;1.73;;;0.90;;
12878;SDS011;20617;49.476;10.986;2023-11-21T03:05:12;1.85;;;1.00;;
12878;SDS011;20617;49.476;10.986;2023-11-21T03:07:17;3.28;;;0.90;;
12878;SDS011;20617;49.476;10.986;2023-11-21T03:09:23;2.15;;;0.98;;
12878;SDS011;20617;49.476;10.986;2023-11-21T03:11:28;3.05;;;1.05;;
12878;SDS011;20617;49.476;10.986;2023-11-21T03:13:33;2.45;;;0.95;;
12878;SDS011;20617;49.476;10.986;2023-11-21T03:15:38;3.40;;;1.30;;
12878;SDS011;20617;49.476;10.986;2023-11-21T03:17:44;3.75;;;1.20;;
12878;SDS011;20617;49.476;10.986;2023-11-21T03:19:51;2.33;;;1.08;;
12878;SDS011;20617;49.476;10.986;2023-11-21T03:21:54;2.28;;;0.90;;
12878;SDS011;20617;49.476;10.986;2023-11-21T03:23:59;1.55;;;1.00;;
12878;SDS011;20617;49.476;10.986;2023-11-21T03:26:04;1.80;;;1.23;;
12878;SDS011;20617;49.476;10.986;2023-11-21T03:28:10;2.15;;;1.25;;
12878;SDS011;20617;49.476;10.986;2023-11-21T03:30:18;3.70;;;1.27;;
12878;SDS011;20617;49.476;10.986;2023-11-21T03:32:20;5.60;;;1.27;;
12878;SDS011;20617;49.476;10.986;2023-11-21T03:34:26;3.85;;;1.27;;
12878;SDS011;20617;49.476;10.986;2023-11-21T03:36:32;4.20;;;1.25;;
12878;SDS011;20617;49.476;10.986;2023-11-21T03:38:38;1.88;;;1.00;;
12878;SDS011;20617;49.476;10.986;2023-11-21T03:40:43;2.50;;;1.40;;
12878;SDS011;20617;49.476;10.986;2023-11-21T03:42:49;1.92;;;1.33;;
12878;SDS011;20617;49.476;10.986;2023-11-21T03:44:54;3.25;;;1.33;;
12878;SDS011;20617;49.476;10.986;2023-11-21T03:47:02;7.85;;;1.75;;
12878;SDS011;20617;49.476;10.986;2023-11-21T03:49:08;2.28;;;1.30;;
12878;SDS011;20617;49.476;10.986;2023-11-21T03:51:13;3.58;;;1.63;;
12878;SDS011;20617;49.476;10.986;2023-11-21T03:53:18;2.05;;;1.17;;
12878;SDS011;20617;49.476;10.986;2023-11-21T03:55:23;3.45;;;1.48;;
12878;SDS011;20617;49.476;10.986;2023-11-21T03:57:28;3.13;;;1.13;;
12878;SDS011;20617;49.476;10.986;2023-11-21T03:59:34;3.40;;;1.23;;
12878;SDS011;20617;49.476;10.986;2023-11-21T04:01:39;2.95;;;1.50;;
12878;SDS011;20617;49.476;10.986;2023-11-21T04:03:47;2.65;;;1.40;;
12878;SDS011;20617;49.476;10.986;2023-11-21T04:05:53;1.58;;;1.10;;
12878;SDS011;20617;49.476;10.986;2023-11-21T04:07:58;3.85;;;1.27;;
12878;SDS011;20617;49.476;10.986;2023-11-21T04:10:04;5.03;;;1.40;;
12878;SDS011;20617;49.476;10.986;2023-11-21T04:12:13;3.58;;;1.20;;
12878;SDS011;20617;49.476;10.986;2023-11-21T04:14:18;2.28;;;0.93;;
12878;SDS011;20617;49.476;10.986;2023-11-21T04:16:24;2.80;;;1.17;;
12878;SDS011;20617;49.476;10.986;2023-11-21T04:18:30;2.50;;;1.40;;
12878;SDS011;20617;49.476;10.986;2023-11-21T04:20:35;3.88;;;1.52;;
12878;SDS011;20617;49.476;10.986;2023-11-21T04:22:44;2.63;;;1.08;;
12878;SDS011;20617;49.476;10.986;2023-11-21T04:24:50;4.28;;;1.30;;
12878;SDS011;20617;49.476;10.986;2023-11-21T04:26:52;3.22;;;1.60;;
12878;SDS011;20617;49.476;10.986;2023-11-21T04:28:57;4.70;;;1.20;;
12878;SDS011;20617;49.476;10.986;2023-11-21T04:31:03;2.67;;;1.45;;
12878;SDS011;20617;49.476;10.986;2023-11-21T04:33:09;2.97;;;1.25;;
12878;SDS011;20617;49.476;10.986;2023-11-21T04:35:11;2.47;;;1.35;;
12878;SDS011;20617;49.476;10.986;2023-11-21T04:37:19;2.45;;;1.20;;
12878;SDS011;20617;49.476;10.986;2023-11-21T04:39:24;3.53;;;1.40;;
12878;SDS011;20617;49.476;10.986;2023-11-21T04:43:35;3.80;;;1.50;;
12878;SDS011;20617;49.476;10.986;2023-11-21T04:45:40;2.58;;;1.45;;
12878;SDS011;20617;49.476;10.986;2023-11-21T04:47:45;2.22;;;1.30;;
12878;SDS011;20617;49.476;10.986;2023-11-21T04:49:51;1.63;;;1.20;;
12878;SDS011;20617;49.476;10.986;2023-11-21T04:54:03;3.72;;;1.30;;
12878;SDS011;20617;49.476;10.986;2023-11-21T04:56:09;4.75;;;1.25;;
12878;SDS011;20617;49.476;10.986;2023-11-21T04:58:15;2.85;;;1.42;;
12878;SDS011;20617;49.476;10.986;2023-11-21T05:00:22;2.38;;;1.40;;
12878;SDS011;20617;49.476;10.986;2023-11-21T05:02:25;4.18;;;1.58;;
12878;SDS011;20617;49.476;10.986;2023-11-21T05:04:36;2.83;;;1.67;;
12878;SDS011;20617;49.476;10.986;2023-11-21T05:06:42;3.95;;;1.45;;
12878;SDS011;20617;49.476;10.986;2023-11-21T05:08:48;4.80;;;2.00;;
12878;SDS011;20617;49.476;10.986;2023-11-21T05:13:00;3.10;;;1.50;;
12878;SDS011;20617;49.476;10.986;2023-11-21T05:17:10;2.20;;;1.40;;
12878;SDS011;20617;49.476;10.986;2023-11-21T05:19:15;1.98;;;1.30;;
12878;SDS011;20617;49.476;10.986;2023-11-21T05:21:20;2.42;;;1.20;;
12878;SDS011;20617;49.476;10.986;2023-11-21T05:23:26;4.60;;;1.88;;
12878;SDS011;20617;49.476;10.986;2023-11-21T05:25:31;2.95;;;1.58;;
12878;SDS011;20617;49.476;10.986;2023-11-21T05:27:44;5.70;;;1.70;;
12878;SDS011;20617;49.476;10.986;2023-11-21T05:29:49;3.03;;;1.50;;
12878;SDS011;20617;49.476;10.986;2023-11-21T05:31:51;3.33;;;1.65;;
12878;SDS011;20617;49.476;10.986;2023-11-21T05:33:57;2.58;;;1.30;;
12878;SDS011;20617;49.476;10.986;2023-11-21T05:36:02;3.33;;;1.63;;
12878;SDS011;20617;49.476;10.986;2023-11-21T05:38:09;2.83;;;1.30;;
12878;SDS011;20617;49.476;10.986;2023-11-21T05:40:12;3.50;;;1.70;;
12878;SDS011;20617;49.476;10.986;2023-11-21T05:42:18;4.63;;;1.58;;
12878;SDS011;20617;49.476;10.986;2023-11-21T05:44:23;3.95;;;1.33;;
12878;SDS011;20617;49.476;10.986;2023-11-21T05:46:29;2.17;;;1.20;;
12878;SDS011;20617;49.476;10.986;2023-11-21T05:48:34;2.75;;;1.65;;
12878;SDS011;20617;49.476;10.986;2023-11-21T05:50:39;3.28;;;1.55;;
12878;SDS011;20617;49.476;10.986;2023-11-21T05:52:42;3.45;;;1.80;;
12878;SDS011;20617;49.476;10.986;2023-11-21T05:54:48;3.95;;;1.90;;
12878;SDS011;20617;49.476;10.986;2023-11-21T05:56:53;3.28;;;1.45;;
12878;SDS011;20617;49.476;10.986;2023-11-21T05:58:58;4.70;;;2.03;;
12878;SDS011;20617;49.476;10.986;2023-11-21T06:01:05;3.55;;;2.22;;
12878;SDS011;20617;49.476;10.986;2023-11-21T06:03:14;4.90;;;2.22;;
12878;SDS011;20617;49.476;10.986;2023-11-21T06:05:17;4.18;;;1.88;;
12878;SDS011;20617;49.476;10.986;2023-11-21T06:07:25;3.30;;;1.85;;
12878;SDS011;20617;49.476;10.986;2023-11-21T06:09:27;2.33;;;1.60;;
12878;SDS011;20617;49.476;10.986;2023-11-21T06:13:37;2.83;;;1.63;;
12878;SDS011;20617;49.476;10.986;2023-11-21T06:15:43;2.42;;;1.60;;
12878;SDS011;20617;49.476;10.986;2023-11-21T06:17:52;2.78;;;1.88;;
12878;SDS011;20617;49.476;10.986;2023-11-21T06:19:59;4.28;;;1.60;;
12878;SDS011;20617;49.476;10.986;2023-11-21T06:22:11;4.07;;;2.17;;
12878;SDS011;20617;49.476;10.986;2023-11-21T06:24:16;5.10;;;1.92;;
12878;SDS011;20617;49.476;10.986;2023-11-21T06:26:22;4.78;;;2.00;;
12878;SDS011;20617;49.476;10.986;2023-11-21T06:28:28;3.88;;;2.00;;
12878;SDS011;20617;49.476;10.986;2023-11-21T06:30:33;4.32;;;2.58;;
12878;SDS011;20617;49.476;10.986;2023-11-21T06:32:39;5.15;;;2.85;;
12878;SDS011;20617;49.476;10.986;2023-11-21T06:34:45;2.85;;;2.10;;
12878;SDS011;20617;49.476;10.986;2023-11-21T06:36:52;4.85;;;2.53;;
12878;SDS011;20617;49.476;10.986;2023-11-21T06:38:58;3.47;;;2.25;;
12878;SDS011;20617;49.476;10.986;2023-11-21T06:41:04;4.13;;;2.25;;
12878;SDS011;20617;49.476;10.986;2023-11-21T06:43:10;7.22;;;2.70;;
12878;SDS011;20617;49.476;10.986;2023-11-21T06:45:16;3.58;;;2.15;;
12878;SDS011;20617;49.476;10.986;2023-11-21T06:47:22;3.80;;;2.50;;
12878;SDS011;20617;49.476;10.986;2023-11-21T06:49:31;4.25;;;2.45;;
12878;SDS011;20617;49.476;10.986;2023-11-21T06:51:40;2.60;;;1.90;;
12878;SDS011;20617;49.476;10.986;2023-11-21T06:53:46;4.82;;;2.45;;
12878;SDS011;20617;49.476;10.986;2023-11-21T06:55:51;3.95;;;2.28;;
12878;SDS011;20617;49.476;10.986;2023-11-21T06:57:57;5.38;;;2.53;;
12878;SDS011;20617;49.476;10.986;2023-11-21T07:00:03;3.78;;;2.28;;
12878;SDS011;20617;49.476;10.986;2023-11-21T07:02:11;2.95;;;2.03;;
12878;SDS011;20617;49.476;10.986;2023-11-21T07:04:14;4.00;;;2.38;;
12878;SDS011;20617;49.476;10.986;2023-11-21T07:06:23;5.22;;;3.30;;
12878;SDS011;20617;49.476;10.986;2023-11-21T07:08:31;2.25;;;2.00;;
12878;SDS011;20617;49.476;10.986;2023-11-21T07:10:36;4.07;;;2.70;;
12878;SDS011;20617;49.476;10.986;2023-11-21T07:12:41;3.70;;;2.92;;
12878;SDS011;20617;49.476;10.986;2023-11-21T07:14:48;4.70;;;2.97;;
12878;SDS011;20617;49.476;10.986;2023-11-21T07:16:53;4.85;;;3.28;;
12878;SDS011;20617;49.476;10.986;2023-11-21T07:18:59;6.10;;;3.00;;
12878;SDS011;20617;49.476;10.986;2023-11-21T07:21:05;5.13;;;2.72;;
12878;SDS011;20617;49.476;10.986;2023-11-21T07:23:14;4.32;;;2.72;;
12878;SDS011;20617;49.476;10.986;2023-11-21T07:25:22;4.40;;;2.10;;
12878;SDS011;20617;49.476;10.986;2023-11-21T07:27:28;4.68;;;2.63;;
12878;SDS011;20617;49.476;10.986;2023-11-21T07:29:36;4.25;;;3.03;;
12878;SDS011;20617;49.476;10.986;2023-11-21T07:31:41;4.15;;;3.03;;
12878;SDS011;20617;49.476;10.986;2023-11-21T07:33:47;5.30;;;3.00;;
12878;SDS011;20617;49.476;10.986;2023-11-21T07:35:52;5.05;;;2.45;;
12878;SDS011;20617;49.476;10.986;2023-11-21T07:37:59;3.20;;;2.10;;
12878;SDS011;20617;49.476;10.986;2023-11-21T07:40:08;2.95;;;2.25;;
12878;SDS011;20617;49.476;10.986;2023-11-21T07:42:18;2.88;;;2.50;;
12878;SDS011;20617;49.476;10.986;2023-11-21T07:44:26;6.22;;;3.17;;
12878;SDS011;20617;49.476;10.986;2023-11-21T07:48:40;4.07;;;2.60;;
12878;SDS011;20617;49.476;10.986;2023-11-21T07:50:47;5.63;;;2.60;;
12878;SDS011;20617;49.476;10.986;2023-11-21T07:54:58;3.50;;;2.33;;
12878;SDS011;20617;49.476;10.986;2023-11-21T07:57:07;3.95;;;2.60;;
12878;SDS011;20617;49.476;10.986;2023-11-21T07:59:20;3.63;;;2.33;;
12878;SDS011;20617;49.476;10.986;2023-11-21T08:01:29;4.90;;;2.95;;
12878;SDS011;20617;49.476;10.986;2023-11-21T08:03:39;4.00;;;2.63;;
12878;SDS011;20617;49.476;10.986;2023-11-21T08:05:41;4.65;;;2.70;;
12878;SDS011;20617;49.476;10.986;2023-11-21T08:07:47;6.10;;;2.90;;
12878;SDS011;20617;49.476;10.986;2023-11-21T08:09:52;4.22;;;2.65;;
12878;SDS011;20617;49.476;10.986;2023-11-21T08:12:01;5.20;;;2.78;;
12878;SDS011;20617;49.476;10.986;2023-11-21T08:14:11;3.33;;;2.40;;
12878;SDS011;20617;49.476;10.986;2023-11-21T08:16:19;3.33;;;2.60;;
12878;SDS011;20617;49.476;10.986;2023-11-21T08:18:26;5.13;;;2.50;;
12878;SDS011;20617;49.476;10.986;2023-11-21T08:22:39;4.00;;;2.60;;
12878;SDS011;20617;49.476;10.986;2023-11-21T08:24:45;6.53;;;3.42;;
12878;SDS011;20617;49.476;10.986;2023-11-21T08:26:52;4.43;;;2.55;;
12878;SDS011;20617;49.476;10.986;2023-11-21T08:28:58;5.20;;;2.95;;
12878;SDS011;20617;49.476;10.986;2023-11-21T08:31:04;5.10;;;3.00;;
12878;SDS011;20617;49.476;10.986;2023-11-21T08:33:28;3.92;;;3.00;;
12878;SDS011;20617;49.476;10.986;2023-11-21T08:35:39;4.72;;;2.70;;
12878;SDS011;20617;49.476;10.986;2023-11-21T08:37:48;5.35;;;3.10;;
12878;SDS011;20617;49.476;10.986;2023-11-21T08:39:57;4.55;;;3.35;;
12878;SDS011;20617;49.476;10.986;2023-11-21T08:42:04;4.68;;;3.38;;
12878;SDS011;20617;49.476;10.986;2023-11-21T08:44:11;5.97;;;3.38;;
12878;SDS011;20617;49.476;10.986;2023-11-21T08:46:19;4.15;;;3.03;;
12878;SDS011;20617;49.476;10.986;2023-11-21T08:48:30;5.00;;;3.10;;
12878;SDS011;20617;49.476;10.986;2023-11-21T08:50:39;6.25;;;3.35;;
12878;SDS011;20617;49.476;10.986;2023-11-21T08:52:46;5.35;;;3.53;;
12878;SDS011;20617;49.476;10.986;2023-11-21T08:54:53;5.10;;;3.78;;
12878;SDS011;20617;49.476;10.986;2023-11-21T08:56:59;5.05;;;3.40;;
12878;SDS011;20617;49.476;10.986;2023-11-21T08:59:05;6.35;;;3.50;;
